sensor_id;sensor_type;location;lat;lon;timestamp;P1;durP1;ratioP1;P2;durP2;ratioP2
50872;SDS011;72604;40.088;18.346;2024-02-23T00:03:32;18.83;;;12.23;;
50872;SDS011;72604;40.088;18.346;2024-02-23T00:07:14;20.80;;;13.25;;
50872;SDS011;72604;40.088;18.346;2024-02-23T00:10:56;23.13;;;12.70;;
50872;SDS011;72604;40.088;18.346;2024-02-23T00:14:38;19.63;;;12.55;;
50872;SDS011;72604;40.088;18.346;2024-02-23T00:18:20;21.30;;;13.50;;
50872;SDS011;72604;40.088;18.346;2024-02-23T00:22:02;21.25;;;13.25;;
50872;SDS011;72604;40.088;18.346;2024-02-23T00:25:44;21.25;;;13.48;;
50872;SDS011;72604;40.088;18.346;2024-02-23T00:29:26;21.40;;;13.65;;
50872;SDS011;72604;40.088;18.346;2024-02-23T00:33:08;21.95;;;13.45;;
50872;SDS011;72604;40.088;18.346;2024-02-23T00:36:50;20.17;;;12.88;;
50872;SDS011;72604;40.088;18.346;2024-02-23T00:40:31;22.95;;;13.05;;
50872;SDS011;72604;40.088;18.346;2024-02-23T00:44:12;20.75;;;12.88;;
50872;SDS011;72604;40.088;18.346;2024-02-23T00:47:53;20.00;;;12.38;;
50872;SDS011;72604;40.088;18.346;2024-02-23T00:51:38;20.50;;;12.95;;
50872;SDS011;72604;40.088;18.346;2024-02-23T00:55:19;22.42;;;12.95;;
50872;SDS011;72604;40.088;18.346;2024-02-23T00:59:00;23.10;;;12.68;;
50872;SDS011;72604;40.088;18.346;2024-02-23T01:02:41;21.35;;;12.38;;
50872;SDS011;72604;40.088;18.346;2024-02-23T01:06:23;23.38;;;12.75;;
50872;SDS011;72604;40.088;18.346;2024-02-23T01:10:06;20.52;;;12.48;;
50872;SDS011;72604;40.088;18.346;2024-02-23T01:13:47;25.85;;;13.93;;
50872;SDS011;72604;40.088;18.346;2024-02-23T01:17:28;24.17;;;12.20;;
50872;SDS011;72604;40.088;18.346;2024-02-23T01:21:09;22.08;;;13.07;;
50872;SDS011;72604;40.088;18.346;2024-02-23T01:24:50;21.60;;;12.68;;
50872;SDS011;72604;40.088;18.346;2024-02-23T01:28:33;20.25;;;11.70;;
50872;SDS011;72604;40.088;18.346;2024-02-23T01:32:14;24.38;;;12.30;;
50872;SDS011;72604;40.088;18.346;2024-02-23T01:35:55;20.48;;;12.55;;
50872;SDS011;72604;40.088;18.346;2024-02-23T01:39:37;29.10;;;13.30;;
50872;SDS011;72604;40.088;18.346;2024-02-23T01:43:18;19.55;;;12.07;;
50872;SDS011;72604;40.088;18.346;2024-02-23T01:47:01;24.33;;;13.05;;
50872;SDS011;72604;40.088;18.346;2024-02-23T01:50:43;22.15;;;12.00;;
50872;SDS011;72604;40.088;18.346;2024-02-23T01:54:25;26.30;;;13.20;;
50872;SDS011;72604;40.088;18.346;2024-02-23T01:58:08;23.00;;;13.00;;
50872;SDS011;72604;40.088;18.346;2024-02-23T02:01:49;22.75;;;12.40;;
50872;SDS011;72604;40.088;18.346;2024-02-23T02:05:31;19.02;;;12.25;;
50872;SDS011;72604;40.088;18.346;2024-02-23T02:09:13;22.60;;;11.57;;
50872;SDS011;72604;40.088;18.346;2024-02-23T02:12:54;21.65;;;12.70;;
50872;SDS011;72604;40.088;18.346;2024-02-23T02:16:35;19.52;;;11.35;;
50872;SDS011;72604;40.088;18.346;2024-02-23T02:20:17;21.05;;;10.95;;
50872;SDS011;72604;40.088;18.346;2024-02-23T02:24:00;19.67;;;11.38;;
50872;SDS011;72604;40.088;18.346;2024-02-23T02:27:41;19.25;;;10.43;;
50872;SDS011;72604;40.088;18.346;2024-02-23T02:31:22;21.63;;;10.32;;
50872;SDS011;72604;40.088;18.346;2024-02-23T02:35:03;18.23;;;10.98;;
50872;SDS011;72604;40.088;18.346;2024-02-23T02:38:45;22.02;;;10.93;;
50872;SDS011;72604;40.088;18.346;2024-02-23T02:42:27;22.67;;;10.93;;
50872;SDS011;72604;40.088;18.346;2024-02-23T02:46:09;21.55;;;11.13;;
50872;SDS011;72604;40.088;18.346;2024-02-23T02:49:50;22.35;;;10.95;;
50872;SDS011;72604;40.088;18.346;2024-02-23T02:53:31;18.98;;;11.13;;
50872;SDS011;72604;40.088;18.346;2024-02-23T02:57:13;17.63;;;10.52;;
50872;SDS011;72604;40.088;18.346;2024-02-23T03:00:56;18.77;;;10.80;;
50872;SDS011;72604;40.088;18.346;2024-02-23T03:04:37;19.65;;;10.60;;
50872;SDS011;72604;40.088;18.346;2024-02-23T03:08:18;21.08;;;10.35;;
50872;SDS011;72604;40.088;18.346;2024-02-23T03:11:58;18.50;;;10.18;;
50872;SDS011;72604;40.088;18.346;2024-02-23T03:15:39;18.15;;;9.68;;
50872;SDS011;72604;40.088;18.346;2024-02-23T03:19:21;18.50;;;10.13;;
50872;SDS011;72604;40.088;18.346;2024-02-23T03:23:03;20.02;;;11.07;;
50872;SDS011;72604;40.088;18.346;2024-02-23T03:26:44;20.38;;;9.88;;
50872;SDS011;72604;40.088;18.346;2024-02-23T03:30:26;19.30;;;10.27;;
50872;SDS011;72604;40.088;18.346;2024-02-23T03:34:07;20.48;;;10.38;;
50872;SDS011;72604;40.088;18.346;2024-02-23T03:37:49;16.95;;;10.15;;
50872;SDS011;72604;40.088;18.346;2024-02-23T03:41:11;21.35;;;10.57;;
50872;SDS011;72604;40.088;18.346;2024-02-23T03:44:52;20.13;;;10.52;;
50872;SDS011;72604;40.088;18.346;2024-02-23T03:48:33;20.65;;;10.98;;
50872;SDS011;72604;40.088;18.346;2024-02-23T03:52:15;23.08;;;11.55;;
50872;SDS011;72604;40.088;18.346;2024-02-23T03:55:56;20.95;;;11.13;;
50872;SDS011;72604;40.088;18.346;2024-02-23T03:59:39;21.90;;;11.95;;
50872;SDS011;72604;40.088;18.346;2024-02-23T04:03:21;19.98;;;11.30;;
50872;SDS011;72604;40.088;18.346;2024-02-23T04:07:01;18.38;;;10.95;;
50872;SDS011;72604;40.088;18.346;2024-02-23T04:10:42;22.02;;;12.90;;
50872;SDS011;72604;40.088;18.346;2024-02-23T04:14:23;22.85;;;12.52;;
50872;SDS011;72604;40.088;18.346;2024-02-23T04:18:06;20.67;;;12.00;;
50872;SDS011;72604;40.088;18.346;2024-02-23T04:21:47;21.98;;;12.48;;
50872;SDS011;72604;40.088;18.346;2024-02-23T04:25:28;23.00;;;12.48;;
50872;SDS011;72604;40.088;18.346;2024-02-23T04:29:09;25.15;;;14.30;;
50872;SDS011;72604;40.088;18.346;2024-02-23T04:32:50;25.23;;;13.55;;
50872;SDS011;72604;40.088;18.346;2024-02-23T04:36:32;23.58;;;12.85;;
50872;SDS011;72604;40.088;18.346;2024-02-23T04:40:13;19.23;;;11.23;;
50872;SDS011;72604;40.088;18.346;2024-02-23T04:43:54;22.23;;;12.98;;
50872;SDS011;72604;40.088;18.346;2024-02-23T04:47:40;19.25;;;12.52;;
50872;SDS011;72604;40.088;18.346;2024-02-23T04:51:22;18.35;;;12.38;;
50872;SDS011;72604;40.088;18.346;2024-02-23T04:55:05;21.17;;;12.48;;
50872;SDS011;72604;40.088;18.346;2024-02-23T04:58:46;21.50;;;12.95;;
50872;SDS011;72604;40.088;18.346;2024-02-23T05:02:27;21.38;;;11.02;;
50872;SDS011;72604;40.088;18.346;2024-02-23T05:06:14;19.48;;;10.90;;
50872;SDS011;72604;40.088;18.346;2024-02-23T05:09:55;18.60;;;10.85;;
50872;SDS011;72604;40.088;18.346;2024-02-23T05:13:37;20.05;;;11.05;;
50872;SDS011;72604;40.088;18.346;2024-02-23T05:17:21;20.85;;;11.43;;
50872;SDS011;72604;40.088;18.346;2024-02-23T05:21:03;18.02;;;10.90;;
50872;SDS011;72604;40.088;18.346;2024-02-23T05:24:44;21.60;;;11.15;;
50872;SDS011;72604;40.088;18.346;2024-02-23T05:28:25;18.20;;;10.40;;
50872;SDS011;72604;40.088;18.346;2024-02-23T05:32:08;17.95;;;10.93;;
50872;SDS011;72604;40.088;18.346;2024-02-23T05:35:50;20.75;;;10.63;;
50872;SDS011;72604;40.088;18.346;2024-02-23T05:39:32;19.05;;;11.35;;
50872;SDS011;72604;40.088;18.346;2024-02-23T05:43:12;21.83;;;10.85;;
50872;SDS011;72604;40.088;18.346;2024-02-23T05:46:53;17.85;;;10.77;;
50872;SDS011;72604;40.088;18.346;2024-02-23T05:50:35;14.02;;;8.70;;
50872;SDS011;72604;40.088;18.346;2024-02-23T05:54:16;16.85;;;8.57;;
50872;SDS011;72604;40.088;18.346;2024-02-23T05:57:57;13.00;;;8.35;;
50872;SDS011;72604;40.088;18.346;2024-02-23T06:01:38;12.23;;;7.22;;
50872;SDS011;72604;40.088;18.346;2024-02-23T06:05:19;13.27;;;8.05;;
50872;SDS011;72604;40.088;18.346;2024-02-23T06:09:02;12.63;;;6.90;;
50872;SDS011;72604;40.088;18.346;2024-02-23T06:12:43;11.25;;;6.85;;
50872;SDS011;72604;40.088;18.346;2024-02-23T06:16:25;11.68;;;7.03;;
50872;SDS011;72604;40.088;18.346;2024-02-23T06:20:06;11.98;;;6.60;;
50872;SDS011;72604;40.088;18.346;2024-02-23T06:23:48;11.45;;;6.82;;
50872;SDS011;72604;40.088;18.346;2024-02-23T06:27:30;9.10;;;6.18;;
50872;SDS011;72604;40.088;18.346;2024-02-23T06:31:11;10.95;;;6.38;;
50872;SDS011;72604;40.088;18.346;2024-02-23T06:34:52;11.18;;;5.63;;
50872;SDS011;72604;40.088;18.346;2024-02-23T06:38:35;12.82;;;6.07;;
50872;SDS011;72604;40.088;18.346;2024-02-23T06:42:16;9.82;;;5.70;;
50872;SDS011;72604;40.088;18.346;2024-02-23T06:45:59;13.13;;;6.97;;
50872;SDS011;72604;40.088;18.346;2024-02-23T06:49:45;8.48;;;5.82;;
50872;SDS011;72604;40.088;18.346;2024-02-23T06:53:26;9.38;;;6.18;;
50872;SDS011;72604;40.088;18.346;2024-02-23T06:57:07;12.02;;;6.07;;
50872;SDS011;72604;40.088;18.346;2024-02-23T07:00:49;9.77;;;6.30;;
50872;SDS011;72604;40.088;18.346;2024-02-23T07:04:32;9.98;;;5.97;;
50872;SDS011;72604;40.088;18.346;2024-02-23T07:08:13;12.70;;;6.22;;
50872;SDS011;72604;40.088;18.346;2024-02-23T07:11:54;14.35;;;6.40;;
50872;SDS011;72604;40.088;18.346;2024-02-23T07:15:35;12.20;;;5.60;;
50872;SDS011;72604;40.088;18.346;2024-02-23T07:19:16;8.15;;;6.07;;
50872;SDS011;72604;40.088;18.346;2024-02-23T07:22:58;10.50;;;5.43;;
50872;SDS011;72604;40.088;18.346;2024-02-23T07:26:40;9.48;;;5.80;;
50872;SDS011;72604;40.088;18.346;2024-02-23T07:30:21;9.95;;;6.03;;
50872;SDS011;72604;40.088;18.346;2024-02-23T07:34:02;7.20;;;5.30;;
50872;SDS011;72604;40.088;18.346;2024-02-23T07:37:43;9.57;;;5.90;;
50872;SDS011;72604;40.088;18.346;2024-02-23T07:41:26;12.05;;;5.75;;
50872;SDS011;72604;40.088;18.346;2024-02-23T07:45:08;10.32;;;5.68;;
50872;SDS011;72604;40.088;18.346;2024-02-23T07:48:48;9.43;;;5.10;;
50872;SDS011;72604;40.088;18.346;2024-02-23T07:52:30;9.55;;;5.97;;
50872;SDS011;72604;40.088;18.346;2024-02-23T07:56:11;10.63;;;5.97;;
50872;SDS011;72604;40.088;18.346;2024-02-23T07:59:54;11.38;;;9.02;;
50872;SDS011;72604;40.088;18.346;2024-02-23T08:03:35;11.85;;;6.65;;
50872;SDS011;72604;40.088;18.346;2024-02-23T08:07:16;15.38;;;8.82;;
50872;SDS011;72604;40.088;18.346;2024-02-23T08:10:57;100.68;;;89.85;;
50872;SDS011;72604;40.088;18.346;2024-02-23T08:14:38;35.17;;;31.77;;
50872;SDS011;72604;40.088;18.346;2024-02-23T08:18:20;8.60;;;5.45;;
50872;SDS011;72604;40.088;18.346;2024-02-23T08:22:04;10.45;;;7.35;;
50872;SDS011;72604;40.088;18.346;2024-02-23T08:26:02;14.57;;;10.85;;
50872;SDS011;72604;40.088;18.346;2024-02-23T08:29:43;7.93;;;4.18;;
50872;SDS011;72604;40.088;18.346;2024-02-23T08:33:25;7.05;;;4.35;;
50872;SDS011;72604;40.088;18.346;2024-02-23T08:37:07;10.77;;;5.07;;
50872;SDS011;72604;40.088;18.346;2024-02-23T08:40:48;7.70;;;4.28;;
50872;SDS011;72604;40.088;18.346;2024-02-23T08:44:29;6.00;;;3.72;;
50872;SDS011;72604;40.088;18.346;2024-02-23T08:48:11;9.13;;;4.47;;
50872;SDS011;72604;40.088;18.346;2024-02-23T08:51:56;6.05;;;3.75;;
50872;SDS011;72604;40.088;18.346;2024-02-23T08:55:38;6.13;;;3.10;;
50872;SDS011;72604;40.088;18.346;2024-02-23T08:59:19;7.78;;;3.97;;
50872;SDS011;72604;40.088;18.346;2024-02-23T09:03:01;8.20;;;4.07;;
50872;SDS011;72604;40.088;18.346;2024-02-23T09:06:42;6.13;;;3.40;;
50872;SDS011;72604;40.088;18.346;2024-02-23T09:10:25;7.55;;;3.20;;
50872;SDS011;72604;40.088;18.346;2024-02-23T09:14:06;7.95;;;4.05;;
50872;SDS011;72604;40.088;18.346;2024-02-23T09:17:48;8.93;;;3.83;;
50872;SDS011;72604;40.088;18.346;2024-02-23T09:21:29;5.25;;;2.60;;
50872;SDS011;72604;40.088;18.346;2024-02-23T09:25:11;4.55;;;2.70;;
50872;SDS011;72604;40.088;18.346;2024-02-23T09:28:53;11.02;;;6.15;;
50872;SDS011;72604;40.088;18.346;2024-02-23T09:32:34;4.97;;;2.65;;
50872;SDS011;72604;40.088;18.346;2024-02-23T09:36:16;8.90;;;2.75;;
50872;SDS011;72604;40.088;18.346;2024-02-23T09:39:58;7.03;;;3.38;;
50872;SDS011;72604;40.088;18.346;2024-02-23T09:43:39;4.78;;;2.50;;
50872;SDS011;72604;40.088;18.346;2024-02-23T09:47:21;5.85;;;2.75;;
50872;SDS011;72604;40.088;18.346;2024-02-23T09:51:03;6.97;;;2.85;;
50872;SDS011;72604;40.088;18.346;2024-02-23T09:54:46;5.55;;;2.55;;
50872;SDS011;72604;40.088;18.346;2024-02-23T09:58:27;7.05;;;2.75;;
50872;SDS011;72604;40.088;18.346;2024-02-23T10:02:09;4.45;;;2.17;;
50872;SDS011;72604;40.088;18.346;2024-02-23T10:05:53;9.40;;;2.20;;
50872;SDS011;72604;40.088;18.346;2024-02-23T10:09:35;8.20;;;2.58;;
50872;SDS011;72604;40.088;18.346;2024-02-23T10:13:17;8.63;;;2.40;;
50872;SDS011;72604;40.088;18.346;2024-02-23T10:17:00;6.70;;;2.30;;
50872;SDS011;72604;40.088;18.346;2024-02-23T10:20:42;7.93;;;3.05;;
50872;SDS011;72604;40.088;18.346;2024-02-23T10:24:24;4.95;;;2.20;;
50872;SDS011;72604;40.088;18.346;2024-02-23T10:28:06;4.80;;;2.03;;
50872;SDS011;72604;40.088;18.346;2024-02-23T10:31:47;8.63;;;2.63;;
50872;SDS011;72604;40.088;18.346;2024-02-23T10:35:29;6.47;;;2.95;;
50872;SDS011;72604;40.088;18.346;2024-02-23T10:39:12;6.90;;;3.47;;
50872;SDS011;72604;40.088;18.346;2024-02-23T10:42:57;7.38;;;2.35;;
50872;SDS011;72604;40.088;18.346;2024-02-23T10:46:42;9.63;;;2.93;;
50872;SDS011;72604;40.088;18.346;2024-02-23T10:50:23;11.07;;;3.95;;
50872;SDS011;72604;40.088;18.346;2024-02-23T10:54:04;4.72;;;2.20;;
50872;SDS011;72604;40.088;18.346;2024-02-23T10:57:47;6.28;;;2.45;;
50872;SDS011;72604;40.088;18.346;2024-02-23T11:01:30;6.15;;;2.35;;
50872;SDS011;72604;40.088;18.346;2024-02-23T11:05:13;7.35;;;2.50;;
50872;SDS011;72604;40.088;18.346;2024-02-23T11:09:04;6.57;;;2.42;;
50872;SDS011;72604;40.088;18.346;2024-02-23T11:12:45;6.97;;;2.08;;
50872;SDS011;72604;40.088;18.346;2024-02-23T11:16:26;4.25;;;1.90;;
50872;SDS011;72604;40.088;18.346;2024-02-23T11:20:08;10.10;;;2.70;;
50872;SDS011;72604;40.088;18.346;2024-02-23T11:23:55;5.88;;;1.92;;
50872;SDS011;72604;40.088;18.346;2024-02-23T11:27:37;7.55;;;2.45;;
50872;SDS011;72604;40.088;18.346;2024-02-23T11:31:20;9.65;;;2.63;;
50872;SDS011;72604;40.088;18.346;2024-02-23T11:35:02;7.03;;;2.42;;
50872;SDS011;72604;40.088;18.346;2024-02-23T11:38:44;4.50;;;2.20;;
50872;SDS011;72604;40.088;18.346;2024-02-23T11:42:25;7.45;;;2.30;;
50872;SDS011;72604;40.088;18.346;2024-02-23T11:46:07;5.22;;;2.03;;
50872;SDS011;72604;40.088;18.346;2024-02-23T11:49:49;6.28;;;3.25;;
50872;SDS011;72604;40.088;18.346;2024-02-23T11:53:30;7.75;;;3.75;;
50872;SDS011;72604;40.088;18.346;2024-02-23T11:57:12;10.52;;;3.08;;
50872;SDS011;72604;40.088;18.346;2024-02-23T12:00:54;13.23;;;5.05;;
50872;SDS011;72604;40.088;18.346;2024-02-23T12:04:35;5.10;;;1.98;;
50872;SDS011;72604;40.088;18.346;2024-02-23T12:08:16;6.63;;;2.20;;
50872;SDS011;72604;40.088;18.346;2024-02-23T12:11:57;8.05;;;2.40;;
50872;SDS011;72604;40.088;18.346;2024-02-23T12:15:40;7.22;;;2.40;;
50872;SDS011;72604;40.088;18.346;2024-02-23T12:19:22;9.48;;;3.17;;
50872;SDS011;72604;40.088;18.346;2024-02-23T12:23:03;5.60;;;1.95;;
50872;SDS011;72604;40.088;18.346;2024-02-23T12:26:45;8.90;;;3.40;;
50872;SDS011;72604;40.088;18.346;2024-02-23T12:30:26;5.22;;;1.70;;
50872;SDS011;72604;40.088;18.346;2024-02-23T12:34:14;6.85;;;2.17;;
50872;SDS011;72604;40.088;18.346;2024-02-23T12:37:56;7.88;;;2.28;;
50872;SDS011;72604;40.088;18.346;2024-02-23T12:41:37;7.18;;;2.33;;
50872;SDS011;72604;40.088;18.346;2024-02-23T12:45:18;6.38;;;2.50;;
50872;SDS011;72604;40.088;18.346;2024-02-23T12:49:00;7.97;;;2.85;;
50872;SDS011;72604;40.088;18.346;2024-02-23T12:52:43;10.00;;;3.25;;
50872;SDS011;72604;40.088;18.346;2024-02-23T12:56:24;10.57;;;3.50;;
50872;SDS011;72604;40.088;18.346;2024-02-23T13:00:06;8.38;;;2.60;;
50872;SDS011;72604;40.088;18.346;2024-02-23T13:03:48;8.35;;;2.40;;
50872;SDS011;72604;40.088;18.346;2024-02-23T13:07:29;8.43;;;2.70;;
50872;SDS011;72604;40.088;18.346;2024-02-23T13:11:12;10.63;;;2.25;;
50872;SDS011;72604;40.088;18.346;2024-02-23T13:14:53;8.30;;;2.78;;
50872;SDS011;72604;40.088;18.346;2024-02-23T13:18:35;6.43;;;2.38;;
50872;SDS011;72604;40.088;18.346;2024-02-23T13:22:16;6.68;;;2.33;;
50872;SDS011;72604;40.088;18.346;2024-02-23T13:25:58;5.38;;;2.40;;
50872;SDS011;72604;40.088;18.346;2024-02-23T13:29:44;7.13;;;2.58;;
50872;SDS011;72604;40.088;18.346;2024-02-23T13:33:24;9.23;;;3.38;;
50872;SDS011;72604;40.088;18.346;2024-02-23T13:37:06;8.35;;;3.30;;
50872;SDS011;72604;40.088;18.346;2024-02-23T13:40:47;9.15;;;4.03;;
50872;SDS011;72604;40.088;18.346;2024-02-23T13:44:29;9.23;;;3.78;;
50872;SDS011;72604;40.088;18.346;2024-02-23T13:48:11;8.30;;;4.82;;
50872;SDS011;72604;40.088;18.346;2024-02-23T13:51:53;10.68;;;3.30;;
50872;SDS011;72604;40.088;18.346;2024-02-23T13:55:34;10.40;;;3.55;;
50872;SDS011;72604;40.088;18.346;2024-02-23T13:59:15;7.10;;;3.15;;
50872;SDS011;72604;40.088;18.346;2024-02-23T14:02:56;11.00;;;4.47;;
50872;SDS011;72604;40.088;18.346;2024-02-23T14:06:40;12.10;;;4.80;;
50872;SDS011;72604;40.088;18.346;2024-02-23T14:10:21;11.57;;;5.13;;
50872;SDS011;72604;40.088;18.346;2024-02-23T14:14:02;7.35;;;3.58;;
50872;SDS011;72604;40.088;18.346;2024-02-23T14:17:43;11.48;;;3.75;;
50872;SDS011;72604;40.088;18.346;2024-02-23T14:21:25;9.05;;;3.47;;
50872;SDS011;72604;40.088;18.346;2024-02-23T14:25:08;9.30;;;4.70;;
50872;SDS011;72604;40.088;18.346;2024-02-23T14:28:50;14.18;;;4.40;;
50872;SDS011;72604;40.088;18.346;2024-02-23T14:32:31;10.68;;;4.95;;
50872;SDS011;72604;40.088;18.346;2024-02-23T14:36:12;10.45;;;4.55;;
50872;SDS011;72604;40.088;18.346;2024-02-23T14:39:53;9.73;;;3.65;;
50872;SDS011;72604;40.088;18.346;2024-02-23T14:43:36;10.57;;;3.42;;
50872;SDS011;72604;40.088;18.346;2024-02-23T14:47:19;10.80;;;4.10;;
50872;SDS011;72604;40.088;18.346;2024-02-23T14:51:02;8.38;;;3.63;;
50872;SDS011;72604;40.088;18.346;2024-02-23T14:54:44;8.68;;;3.70;;
50872;SDS011;72604;40.088;18.346;2024-02-23T14:58:25;11.18;;;4.15;;
50872;SDS011;72604;40.088;18.346;2024-02-23T15:02:08;13.38;;;4.10;;
50872;SDS011;72604;40.088;18.346;2024-02-23T15:05:50;9.60;;;3.25;;
50872;SDS011;72604;40.088;18.346;2024-02-23T15:09:31;10.20;;;3.90;;
50872;SDS011;72604;40.088;18.346;2024-02-23T15:13:12;8.50;;;4.38;;
50872;SDS011;72604;40.088;18.346;2024-02-23T15:16:55;13.43;;;4.50;;
50872;SDS011;72604;40.088;18.346;2024-02-23T15:20:37;10.93;;;3.90;;
50872;SDS011;72604;40.088;18.346;2024-02-23T15:24:19;11.25;;;4.47;;
50872;SDS011;72604;40.088;18.346;2024-02-23T15:28:00;12.48;;;4.72;;
50872;SDS011;72604;40.088;18.346;2024-02-23T15:31:42;12.50;;;4.60;;
50872;SDS011;72604;40.088;18.346;2024-02-23T15:35:23;10.98;;;4.30;;
50872;SDS011;72604;40.088;18.346;2024-02-23T15:39:07;11.70;;;4.22;;
50872;SDS011;72604;40.088;18.346;2024-02-23T15:42:48;10.07;;;5.18;;
50872;SDS011;72604;40.088;18.346;2024-02-23T15:46:30;11.60;;;5.50;;
50872;SDS011;72604;40.088;18.346;2024-02-23T15:50:12;14.82;;;5.57;;
50872;SDS011;72604;40.088;18.346;2024-02-23T15:53:55;19.63;;;5.65;;
50872;SDS011;72604;40.088;18.346;2024-02-23T15:57:38;11.75;;;5.50;;
50872;SDS011;72604;40.088;18.346;2024-02-23T16:01:19;10.48;;;5.85;;
50872;SDS011;72604;40.088;18.346;2024-02-23T16:05:00;17.48;;;8.07;;
50872;SDS011;72604;40.088;18.346;2024-02-23T16:08:42;16.65;;;6.25;;
50872;SDS011;72604;40.088;18.346;2024-02-23T16:12:24;12.93;;;6.05;;
50872;SDS011;72604;40.088;18.346;2024-02-23T16:16:07;15.10;;;5.20;;
50872;SDS011;72604;40.088;18.346;2024-02-23T16:19:49;12.38;;;5.80;;
50872;SDS011;72604;40.088;18.346;2024-02-23T16:23:30;15.93;;;6.07;;
50872;SDS011;72604;40.088;18.346;2024-02-23T16:27:11;15.30;;;6.95;;
50872;SDS011;72604;40.088;18.346;2024-02-23T16:30:53;13.80;;;5.47;;
50872;SDS011;72604;40.088;18.346;2024-02-23T16:34:35;13.50;;;5.30;;
50872;SDS011;72604;40.088;18.346;2024-02-23T16:38:19;12.52;;;5.30;;
50872;SDS011;72604;40.088;18.346;2024-02-23T16:42:00;11.60;;;5.10;;
50872;SDS011;72604;40.088;18.346;2024-02-23T16:45:42;10.25;;;4.93;;
50872;SDS011;72604;40.088;18.346;2024-02-23T16:49:23;11.95;;;4.60;;
50872;SDS011;72604;40.088;18.346;2024-02-23T16:53:06;10.40;;;5.30;;
50872;SDS011;72604;40.088;18.346;2024-02-23T16:56:47;14.68;;;5.80;;
50872;SDS011;72604;40.088;18.346;2024-02-23T17:00:29;13.88;;;4.80;;
50872;SDS011;72604;40.088;18.346;2024-02-23T17:04:10;14.93;;;5.93;;
50872;SDS011;72604;40.088;18.346;2024-02-23T17:07:51;17.90;;;7.22;;
50872;SDS011;72604;40.088;18.346;2024-02-23T17:11:34;23.08;;;8.70;;
50872;SDS011;72604;40.088;18.346;2024-02-23T17:15:15;19.13;;;9.35;;
50872;SDS011;72604;40.088;18.346;2024-02-23T17:18:56;25.67;;;12.40;;
50872;SDS011;72604;40.088;18.346;2024-02-23T17:22:39;20.55;;;10.43;;
50872;SDS011;72604;40.088;18.346;2024-02-23T17:26:20;15.57;;;6.82;;
50872;SDS011;72604;40.088;18.346;2024-02-23T17:30:03;19.00;;;6.80;;
50872;SDS011;72604;40.088;18.346;2024-02-23T17:33:44;21.08;;;8.05;;
50872;SDS011;72604;40.088;18.346;2024-02-23T17:37:25;14.73;;;7.05;;
50872;SDS011;72604;40.088;18.346;2024-02-23T17:41:06;13.65;;;6.50;;
50872;SDS011;72604;40.088;18.346;2024-02-23T17:44:48;18.25;;;6.43;;
50872;SDS011;72604;40.088;18.346;2024-02-23T17:48:31;16.77;;;6.10;;
50872;SDS011;72604;40.088;18.346;2024-02-23T17:52:12;16.35;;;7.55;;
50872;SDS011;72604;40.088;18.346;2024-02-23T17:55:53;17.33;;;5.78;;
50872;SDS011;72604;40.088;18.346;2024-02-23T17:59:37;12.02;;;4.47;;
50872;SDS011;72604;40.088;18.346;2024-02-23T18:03:18;15.00;;;5.07;;
50872;SDS011;72604;40.088;18.346;2024-02-23T18:07:01;11.43;;;6.03;;
50872;SDS011;72604;40.088;18.346;2024-02-23T18:10:43;12.10;;;5.32;;
50872;SDS011;72604;40.088;18.346;2024-02-23T18:14:24;18.45;;;7.05;;
50872;SDS011;72604;40.088;18.346;2024-02-23T18:18:06;15.63;;;7.18;;
50872;SDS011;72604;40.088;18.346;2024-02-23T18:21:47;13.30;;;5.88;;
50872;SDS011;72604;40.088;18.346;2024-02-23T18:25:30;15.60;;;5.78;;
50872;SDS011;72604;40.088;18.346;2024-02-23T18:29:11;20.23;;;5.28;;
50872;SDS011;72604;40.088;18.346;2024-02-23T18:32:53;20.48;;;7.40;;
50872;SDS011;72604;40.088;18.346;2024-02-23T18:36:35;17.95;;;8.35;;
50872;SDS011;72604;40.088;18.346;2024-02-23T18:40:16;31.85;;;15.13;;
50872;SDS011;72604;40.088;18.346;2024-02-23T18:43:59;23.08;;;8.82;;
50872;SDS011;72604;40.088;18.346;2024-02-23T18:47:40;16.75;;;5.47;;
50872;SDS011;72604;40.088;18.346;2024-02-23T18:51:21;14.77;;;6.00;;
50872;SDS011;72604;40.088;18.346;2024-02-23T18:55:04;16.27;;;6.97;;
50872;SDS011;72604;40.088;18.346;2024-02-23T18:58:46;14.10;;;4.75;;
50872;SDS011;72604;40.088;18.346;2024-02-23T19:02:28;14.48;;;5.82;;
50872;SDS011;72604;40.088;18.346;2024-02-23T19:06:11;12.98;;;4.75;;
50872;SDS011;72604;40.088;18.346;2024-02-23T19:09:53;15.05;;;5.70;;
50872;SDS011;72604;40.088;18.346;2024-02-23T19:13:35;19.88;;;6.63;;
50872;SDS011;72604;40.088;18.346;2024-02-23T19:17:16;15.43;;;5.72;;
50872;SDS011;72604;40.088;18.346;2024-02-23T19:20:59;11.48;;;4.97;;
50872;SDS011;72604;40.088;18.346;2024-02-23T19:24:40;14.95;;;4.82;;
50872;SDS011;72604;40.088;18.346;2024-02-23T19:28:22;15.25;;;5.35;;
50872;SDS011;72604;40.088;18.346;2024-02-23T19:32:03;14.85;;;5.38;;
50872;SDS011;72604;40.088;18.346;2024-02-23T19:35:45;18.98;;;6.15;;
50872;SDS011;72604;40.088;18.346;2024-02-23T19:39:28;12.32;;;4.68;;
50872;SDS011;72604;40.088;18.346;2024-02-23T19:43:10;18.95;;;4.85;;
50872;SDS011;72604;40.088;18.346;2024-02-23T19:46:51;16.50;;;4.95;;
50872;SDS011;72604;40.088;18.346;2024-02-23T19:50:32;15.77;;;5.68;;
50872;SDS011;72604;40.088;18.346;2024-02-23T19:54:13;13.73;;;5.38;;
50872;SDS011;72604;40.088;18.346;2024-02-23T19:57:56;17.27;;;6.03;;
50872;SDS011;72604;40.088;18.346;2024-02-23T20:01:38;14.68;;;5.22;;
50872;SDS011;72604;40.088;18.346;2024-02-23T20:05:19;12.50;;;5.30;;
50872;SDS011;72604;40.088;18.346;2024-02-23T20:09:00;18.40;;;5.85;;
50872;SDS011;72604;40.088;18.346;2024-02-23T20:12:42;12.57;;;5.00;;
50872;SDS011;72604;40.088;18.346;2024-02-23T20:16:28;18.13;;;6.40;;
50872;SDS011;72604;40.088;18.346;2024-02-23T20:20:09;14.15;;;5.40;;
50872;SDS011;72604;40.088;18.346;2024-02-23T20:23:50;16.40;;;6.05;;
50872;SDS011;72604;40.088;18.346;2024-02-23T20:27:32;14.32;;;5.43;;
50872;SDS011;72604;40.088;18.346;2024-02-23T20:31:13;15.48;;;5.68;;
50872;SDS011;72604;40.088;18.346;2024-02-23T20:34:56;11.05;;;5.18;;
50872;SDS011;72604;40.088;18.346;2024-02-23T20:38:38;12.35;;;5.05;;
50872;SDS011;72604;40.088;18.346;2024-02-23T20:42:20;16.30;;;7.97;;
50872;SDS011;72604;40.088;18.346;2024-02-23T20:46:01;14.50;;;5.07;;
50872;SDS011;72604;40.088;18.346;2024-02-23T20:49:43;18.58;;;6.70;;
50872;SDS011;72604;40.088;18.346;2024-02-23T20:53:28;17.52;;;6.03;;
50872;SDS011;72604;40.088;18.346;2024-02-23T20:57:09;15.20;;;5.35;;
50872;SDS011;72604;40.088;18.346;2024-02-23T21:00:50;14.40;;;4.70;;
50872;SDS011;72604;40.088;18.346;2024-02-23T21:04:32;16.13;;;5.93;;
50872;SDS011;72604;40.088;18.346;2024-02-23T21:08:14;16.88;;;6.40;;
50872;SDS011;72604;40.088;18.346;2024-02-23T21:11:56;17.27;;;5.65;;
50872;SDS011;72604;40.088;18.346;2024-02-23T21:15:37;21.20;;;6.95;;
50872;SDS011;72604;40.088;18.346;2024-02-23T21:19:18;18.15;;;7.13;;
50872;SDS011;72604;40.088;18.346;2024-02-23T21:23:00;13.70;;;6.80;;
50872;SDS011;72604;40.088;18.346;2024-02-23T21:26:40;18.02;;;6.80;;
50872;SDS011;72604;40.088;18.346;2024-02-23T21:30:24;15.57;;;5.75;;
50872;SDS011;72604;40.088;18.346;2024-02-23T21:34:05;15.63;;;5.35;;
50872;SDS011;72604;40.088;18.346;2024-02-23T21:37:47;16.23;;;4.95;;